Huvudsida
METAR-TAF:

METAR-TAF

Flygplatser :

Vladikavkaz, Ryssland

latitud: 43-12-18N, longitud: 044-36-24E, höjd: 510 m

Aktuellt väderrapport

Denna rapport gjordes för 41 minuter sedan, klockan 08:00 UTC
Vind 4 kt från väst/nordväst
Temperatur 25°C
Fuktighet 36%
Tryck 1012 hPa
Sikt 10 km eller mer

METAR: URMO 220800Z 30002MPS 9999 NSC 25/09 Q1012 R09/010070 NOSIG RMK QFE715/0954

Tid: 11:41 (08:41 UTC)

Väderprognos

Denna rapport gjordes för 41 minuter sedan, klockan 08:00 UTC
Prognos gäller från 22 kl. 09 UTC till 22 kl. 18 UTC
Vind 6 kt från väst i byarna ända upp till 16 kt
Sikt 10 km eller mer
Spridda moln på en höjd av 5500 ft

TAF: URMO 220800Z 2209/2218 27003G08MPS 9999 SCT055

Aktuella väderrapporter och prognoser från 4000 flygplatser (METAR- och TAF-rapporter).

De tillgängliga stationerna syns som gula och röda prickar på kartan.

För musen över prickarna för att se namnen på stationerna.

Klicka sedan för att få väderrapporter och prognoser.

För att ändra kartan: Klicka på de gröna knapparna med ett svart kors på för att zooma in; den gröna knappen med ett streck på för att zooma ut; eller på de gröna pilarna för angränsande kartor.


METAR-TAF: